createdAt,value
2018-05-15T00:00:43.183Z,99.90
2018-05-15T00:03:14.447Z,99.90
2018-05-15T00:05:42.915Z,99.90
2018-05-15T00:08:12.143Z,99.90
2018-05-15T00:10:40.542Z,99.90
2018-05-15T00:13:09.539Z,99.90
2018-05-15T00:15:37.926Z,99.90
2018-05-15T00:18:07.193Z,99.90
2018-05-15T00:20:35.570Z,99.90
2018-05-15T00:23:04.076Z,99.90
2018-05-15T00:25:32.581Z,99.90
2018-05-15T00:28:01.039Z,99.90
2018-05-15T00:30:30.800Z,99.90
2018-05-15T00:33:00.058Z,99.90
2018-05-15T00:35:28.505Z,99.90
2018-05-15T00:37:56.972Z,99.90
2018-05-15T00:40:25.574Z,99.90
2018-05-15T00:42:57.735Z,99.90
2018-05-15T00:45:26.342Z,99.90
2018-05-15T00:47:55.569Z,99.90
2018-05-15T00:50:24.021Z,99.90
2018-05-15T00:52:52.585Z,99.90
2018-05-15T00:55:27.592Z,99.90
2018-05-15T01:00:34.073Z,99.90
2018-05-15T01:03:03.436Z,99.90
2018-05-15T01:05:31.918Z,99.90
2018-05-15T01:08:00.395Z,99.90
2018-05-15T01:10:28.899Z,99.90
2018-05-15T01:12:57.436Z,99.90
2018-05-15T01:15:25.853Z,99.90
2018-05-15T01:17:54.902Z,99.90
2018-05-15T01:20:24.301Z,99.90
2018-05-15T01:22:56.081Z,99.90
2018-05-15T01:25:24.584Z,99.90
2018-05-15T01:27:53.234Z,99.90
2018-05-15T01:30:23.350Z,99.90
2018-05-15T01:32:52.671Z,99.90
2018-05-15T01:35:24.264Z,99.90
2018-05-15T01:37:53.775Z,99.90
2018-05-15T01:40:22.944Z,99.90
2018-05-15T01:42:52.202Z,99.90
2018-05-15T01:45:22.167Z,99.90
2018-05-15T01:47:51.973Z,99.90
2018-05-15T01:50:21.130Z,99.90
2018-05-15T01:52:49.924Z,99.90
2018-05-15T01:55:18.462Z,99.90
2018-05-15T01:57:48.289Z,99.90
2018-05-15T02:00:16.907Z,99.90
2018-05-15T02:02:45.643Z,99.90
2018-05-15T02:05:14.173Z,99.90
2018-05-15T02:07:43.340Z,99.90
2018-05-15T02:10:12.028Z,99.90
2018-05-15T02:12:40.631Z,99.90
2018-05-15T02:15:09.123Z,99.90
2018-05-15T02:17:37.569Z,99.90
2018-05-15T02:20:06.170Z,99.90
2018-05-15T02:22:35.892Z,99.90
2018-05-15T02:25:05.337Z,99.90
2018-05-15T02:27:33.797Z,99.90
2018-05-15T02:30:03.199Z,99.90
2018-05-15T02:32:32.735Z,99.90
2018-05-15T02:35:01.099Z,99.90
2018-05-15T02:37:29.482Z,99.90
2018-05-15T02:39:58.791Z,99.90
2018-05-15T02:42:27.856Z,99.90
2018-05-15T02:44:57.413Z,99.90
2018-05-15T02:47:25.845Z,99.90
2018-05-15T02:49:55.162Z,99.90
2018-05-15T02:52:23.652Z,99.90
2018-05-15T02:54:51.989Z,99.90
2018-05-15T02:57:20.346Z,99.90
2018-05-15T02:59:48.839Z,99.90
2018-05-15T03:02:17.305Z,99.90
2018-05-15T03:04:45.699Z,99.90
2018-05-15T03:07:14.828Z,99.90
2018-05-15T03:09:44.147Z,99.90
2018-05-15T03:12:12.653Z,99.90
2018-05-15T03:14:41.746Z,99.90
2018-05-15T03:17:13.280Z,99.90
2018-05-15T03:19:43.789Z,99.90
2018-05-15T03:22:12.370Z,99.90
2018-05-15T03:24:40.777Z,99.90
2018-05-15T03:27:09.898Z,99.90
2018-05-15T03:29:38.283Z,99.90
2018-05-15T03:32:06.731Z,99.90
2018-05-15T03:34:35.270Z,99.90
2018-05-15T03:37:03.658Z,99.90
2018-05-15T03:39:32.167Z,99.90
2018-05-15T03:42:01.351Z,99.90
2018-05-15T03:44:29.857Z,99.90
2018-05-15T03:46:58.461Z,99.90
2018-05-15T03:49:26.854Z,99.90
2018-05-15T03:51:55.245Z,99.90
2018-05-15T03:54:23.612Z,99.90
2018-05-15T03:56:51.942Z,99.90
2018-05-15T03:59:20.393Z,99.90
2018-05-15T04:01:54.657Z,99.90
2018-05-15T04:04:28.783Z,99.90
2018-05-15T04:07:03.145Z,99.90
2018-05-15T04:09:31.653Z,99.90
2018-05-15T04:12:00.075Z,99.90
2018-05-15T04:14:28.624Z,99.90
2018-05-15T04:16:56.980Z,99.90
2018-05-15T04:19:25.558Z,99.90
2018-05-15T04:21:54.687Z,99.90
2018-05-15T04:24:23.151Z,99.90
2018-05-15T04:26:52.310Z,99.90
2018-05-15T04:29:20.825Z,99.90
2018-05-15T04:31:50.118Z,99.90
2018-05-15T04:34:19.383Z,99.90
2018-05-15T04:36:47.837Z,99.90
2018-05-15T04:39:16.369Z,99.90
2018-05-15T04:41:44.825Z,99.90
2018-05-15T04:44:14.003Z,99.90
2018-05-15T04:46:42.449Z,99.90
2018-05-15T04:49:11.523Z,99.90
2018-05-15T04:51:39.907Z,99.90
2018-05-15T04:54:09.031Z,99.90
2018-05-15T04:56:37.429Z,99.90
2018-05-15T04:59:05.901Z,99.90
2018-05-15T05:01:34.337Z,99.90
2018-05-15T05:04:02.673Z,99.90
2018-05-15T05:06:31.075Z,99.90
2018-05-15T05:08:59.604Z,99.90
2018-05-15T05:11:28.021Z,99.90
2018-05-15T05:13:56.389Z,99.90
2018-05-15T05:16:24.852Z,99.90
2018-05-15T05:18:54.582Z,99.90
2018-05-15T05:21:23.008Z,99.90
2018-05-15T05:23:52.302Z,99.90
2018-05-15T05:26:21.452Z,99.90
2018-05-15T05:28:49.800Z,99.90
2018-05-15T05:31:18.167Z,99.90
2018-05-15T05:33:46.620Z,99.90
2018-05-15T05:36:15.000Z,99.90
2018-05-15T05:38:43.498Z,99.90
2018-05-15T05:41:11.954Z,99.90
2018-05-15T05:43:40.340Z,99.90
2018-05-15T05:46:08.868Z,99.90
2018-05-15T05:48:37.258Z,99.90
2018-05-15T05:51:06.106Z,99.90
2018-05-15T05:53:34.485Z,99.90
2018-05-15T05:56:02.871Z,99.90
2018-05-15T05:58:31.235Z,99.90
2018-05-15T06:00:59.624Z,99.90
2018-05-15T06:03:27.978Z,99.90
2018-05-15T06:05:56.392Z,99.90
2018-05-15T06:08:24.965Z,99.90
2018-05-15T06:10:53.355Z,99.90
2018-05-15T06:13:21.724Z,99.90
2018-05-15T06:15:50.107Z,99.90
2018-05-15T06:18:18.442Z,99.90
2018-05-15T06:20:46.962Z,99.90
2018-05-15T06:23:16.574Z,99.90
2018-05-15T06:25:44.915Z,99.90
2018-05-15T06:28:13.293Z,99.90
2018-05-15T06:30:41.787Z,99.90
2018-05-15T06:33:10.184Z,99.90
2018-05-15T06:35:38.636Z,99.90
2018-05-15T06:38:07.044Z,99.90
2018-05-15T06:40:35.494Z,99.90
2018-05-15T06:43:04.133Z,99.90
2018-05-15T06:45:32.495Z,99.90
2018-05-15T06:48:00.877Z,99.90
2018-05-15T06:50:29.291Z,99.90
2018-05-15T06:52:58.157Z,99.90
2018-05-15T06:55:26.485Z,99.90
2018-05-15T06:57:54.917Z,99.90
2018-05-15T07:00:24.234Z,99.90
2018-05-15T07:02:52.587Z,99.90
2018-05-15T07:05:21.064Z,99.90
2018-05-15T07:07:49.504Z,99.90
2018-05-15T07:10:17.938Z,99.90
2018-05-15T07:12:47.149Z,99.90
2018-05-15T07:15:15.474Z,99.90
2018-05-15T07:17:43.887Z,99.90
2018-05-15T07:20:12.367Z,99.90
2018-05-15T07:22:40.881Z,99.90
2018-05-15T07:25:09.269Z,99.90
2018-05-15T07:27:37.620Z,99.90
2018-05-15T07:30:06.873Z,99.90
2018-05-15T07:32:35.358Z,99.90
2018-05-15T07:35:03.753Z,99.90
2018-05-15T07:37:32.149Z,99.90
2018-05-15T07:40:00.725Z,99.90
2018-05-15T07:42:30.840Z,99.90
2018-05-15T07:44:59.203Z,99.90
2018-05-15T07:47:27.673Z,99.90
2018-05-15T07:49:55.998Z,99.90
2018-05-15T07:52:24.414Z,99.90
2018-05-15T07:54:53.324Z,99.90
2018-05-15T07:57:21.669Z,99.90
2018-05-15T07:59:50.072Z,99.90
2018-05-15T08:02:18.446Z,99.90
2018-05-15T08:04:46.907Z,99.90
2018-05-15T08:07:15.282Z,99.90
2018-05-15T08:09:43.683Z,99.90
2018-05-15T08:12:12.232Z,99.90
2018-05-15T08:14:40.582Z,99.90
2018-05-15T08:17:08.977Z,99.90
2018-05-15T08:19:37.343Z,99.90
2018-05-15T08:22:05.809Z,99.90
2018-05-15T08:24:34.180Z,99.90
2018-05-15T08:27:02.555Z,99.90
2018-05-15T08:29:30.971Z,99.90
2018-05-15T08:31:59.315Z,99.90
2018-05-15T08:34:27.776Z,99.90
2018-05-15T08:36:56.224Z,99.90
2018-05-15T08:39:24.587Z,99.90
2018-05-15T08:41:52.919Z,99.90
2018-05-15T08:44:21.260Z,99.90
2018-05-15T08:46:49.825Z,99.90
2018-05-15T08:49:18.166Z,99.90
2018-05-15T08:51:46.655Z,99.90
2018-05-15T08:54:15.122Z,99.90
2018-05-15T08:56:44.084Z,99.90
2018-05-15T08:59:12.471Z,99.90
2018-05-15T09:01:40.818Z,99.90
2018-05-15T09:04:09.956Z,99.90
2018-05-15T09:06:38.403Z,99.90
2018-05-15T09:09:06.743Z,99.90
2018-05-15T09:11:35.137Z,99.90
2018-05-15T09:14:03.624Z,99.90
2018-05-15T09:16:31.995Z,99.90
2018-05-15T09:19:00.368Z,99.90
2018-05-15T09:21:28.822Z,99.90
2018-05-15T09:23:57.953Z,99.90
2018-05-15T09:26:26.335Z,99.90
2018-05-15T09:28:54.725Z,99.90
2018-05-15T09:31:23.104Z,99.90
2018-05-15T09:33:51.493Z,99.90
2018-05-15T09:36:19.835Z,99.90
2018-05-15T09:38:48.407Z,99.90
2018-05-15T09:41:16.856Z,99.90
2018-05-15T09:43:59.977Z,99.90
2018-05-15T09:46:28.358Z,99.90
2018-05-15T09:48:56.830Z,99.90
2018-05-15T09:51:25.230Z,99.90
2018-05-15T09:53:54.494Z,99.90
2018-05-15T09:56:22.932Z,99.90
2018-05-15T09:58:52.064Z,99.90
2018-05-15T10:01:20.518Z,99.90
2018-05-15T10:03:49.962Z,99.90
2018-05-15T10:06:20.205Z,99.90
2018-05-15T10:08:48.684Z,99.90
2018-05-15T10:11:17.185Z,99.90
2018-05-15T10:13:46.367Z,99.90
2018-05-15T10:16:14.789Z,99.90
2018-05-15T10:18:43.226Z,99.90
2018-05-15T10:21:11.696Z,99.90
2018-05-15T10:23:40.205Z,99.90
2018-05-15T10:26:08.661Z,99.90
2018-05-15T10:28:37.112Z,99.90
2018-05-15T10:31:06.348Z,99.90
2018-05-15T10:33:34.844Z,99.90
2018-05-15T10:36:03.468Z,99.90
2018-05-15T10:38:31.866Z,99.90
2018-05-15T10:41:01.122Z,99.90
2018-05-15T10:43:29.477Z,99.90
2018-05-15T10:45:58.659Z,99.90
2018-05-15T10:48:27.153Z,99.90
2018-05-15T10:50:55.615Z,99.90
2018-05-15T10:53:24.109Z,99.90
2018-05-15T10:55:52.582Z,99.90
2018-05-15T10:58:21.032Z,99.90
2018-05-15T11:00:50.818Z,99.90
2018-05-15T11:03:19.305Z,99.90
2018-05-15T11:05:47.773Z,99.90
2018-05-15T11:08:16.285Z,99.90
2018-05-15T11:10:46.502Z,99.90
2018-05-15T11:13:14.947Z,99.90
2018-05-15T11:15:43.381Z,99.90
2018-05-15T11:18:17.449Z,99.90
2018-05-15T11:20:52.220Z,99.90
2018-05-15T11:23:27.504Z,99.90
2018-05-15T11:25:55.938Z,99.90
2018-05-15T11:28:24.350Z,99.90
2018-05-15T11:30:52.779Z,99.90
2018-05-15T11:33:21.168Z,99.90
2018-05-15T11:35:49.689Z,99.90
2018-05-15T11:38:18.082Z,99.90
2018-05-15T11:40:46.567Z,99.90
2018-05-15T11:43:14.939Z,99.90
2018-05-15T11:45:43.293Z,99.90
2018-05-15T11:48:12.350Z,99.90
2018-05-15T11:50:41.195Z,99.90
2018-05-15T11:53:09.537Z,99.90
2018-05-15T11:55:42.712Z,99.90
2018-05-15T11:58:07.794Z,99.90
2018-05-15T12:00:37.035Z,99.90
2018-05-15T12:03:06.112Z,99.90
2018-05-15T12:05:34.467Z,99.90
2018-05-15T12:08:03.037Z,99.90
2018-05-15T12:10:31.800Z,99.90
2018-05-15T12:13:00.331Z,99.90
2018-05-15T12:15:29.612Z,99.90
2018-05-15T12:17:58.077Z,99.90
2018-05-15T12:20:26.669Z,99.90
2018-05-15T12:22:55.039Z,99.90
2018-05-15T12:25:23.433Z,99.90
2018-05-15T12:27:51.917Z,99.90
2018-05-15T12:30:20.271Z,99.90
2018-05-15T12:32:48.651Z,99.90
2018-05-15T12:35:17.881Z,99.90
2018-05-15T12:37:46.540Z,99.90
2018-05-15T12:40:14.974Z,99.90
2018-05-15T12:42:43.487Z,99.90
2018-05-15T12:45:11.953Z,99.90
2018-05-15T12:47:40.370Z,99.90
2018-05-15T12:50:08.858Z,99.90
2018-05-15T12:52:37.219Z,99.90
2018-05-15T12:55:05.608Z,99.90
2018-05-15T12:57:34.747Z,99.90
2018-05-15T13:00:03.148Z,99.90
2018-05-15T13:02:31.512Z,99.90
2018-05-15T13:05:01.626Z,99.90
2018-05-15T13:07:30.129Z,99.90
2018-05-15T13:09:58.484Z,99.90
2018-05-15T13:12:27.016Z,99.90
2018-05-15T13:14:55.367Z,99.90
2018-05-15T13:17:23.754Z,99.90
2018-05-15T13:19:52.157Z,99.90
2018-05-15T13:22:20.722Z,99.90
2018-05-15T13:24:49.196Z,99.90
2018-05-15T13:27:17.887Z,99.90
2018-05-15T13:29:46.452Z,99.90
2018-05-15T13:32:14.878Z,99.90
2018-05-15T13:34:43.515Z,99.90
2018-05-15T13:37:12.701Z,99.90
2018-05-15T13:42:13.427Z,99.90
2018-05-15T13:44:45.430Z,99.90
2018-05-15T13:47:13.783Z,99.90
2018-05-15T13:49:42.321Z,99.90
2018-05-15T13:52:10.693Z,99.90
2018-05-15T13:54:39.103Z,99.90
2018-05-15T13:57:07.523Z,99.90
2018-05-15T13:59:35.984Z,99.90
2018-05-15T14:02:05.120Z,99.90
2018-05-15T14:04:34.477Z,99.90
2018-05-15T14:07:13.986Z,99.90
2018-05-15T14:09:42.779Z,99.90
2018-05-15T14:12:12.150Z,99.90
2018-05-15T14:14:40.538Z,99.90
2018-05-15T14:17:10.031Z,99.90
2018-05-15T14:19:39.886Z,99.30
2018-05-15T14:22:09.871Z,99.30
2018-05-15T14:24:38.456Z,99.50
2018-05-15T14:27:07.157Z,99.10
2018-05-15T14:29:37.236Z,96.80
2018-05-15T14:32:06.502Z,96.30
2018-05-15T14:34:35.991Z,93.60
2018-05-15T14:37:04.494Z,93.00
2018-05-15T14:39:33.446Z,91.90
2018-05-15T14:42:07.734Z,90.60
2018-05-15T14:44:37.109Z,89.50
2018-05-15T14:47:06.597Z,86.40
2018-05-15T14:49:35.640Z,86.30
2018-05-15T14:52:05.252Z,86.30
2018-05-15T14:54:35.689Z,86.20
2018-05-15T14:57:05.067Z,82.70
2018-05-15T14:59:35.065Z,83.10
2018-05-15T15:02:03.444Z,81.80
2018-05-15T15:04:31.865Z,79.60
2018-05-15T15:07:00.932Z,76.70
2018-05-15T15:09:30.429Z,73.80
2018-05-15T15:11:59.951Z,72.90
2018-05-15T15:14:28.857Z,73.60
2018-05-15T15:16:57.305Z,70.20
2018-05-15T15:19:25.729Z,70.80
2018-05-15T15:21:55.562Z,68.30
2018-05-15T15:24:28.864Z,68.00
2018-05-15T15:26:57.854Z,68.00
2018-05-15T15:29:26.360Z,68.60
2018-05-15T15:31:57.580Z,70.20
2018-05-15T15:34:26.632Z,69.80
2018-05-15T15:36:56.881Z,67.90
2018-05-15T15:39:26.240Z,68.40
2018-05-15T15:41:55.252Z,70.30
2018-05-15T15:44:24.568Z,71.90
2018-05-15T15:46:54.600Z,72.10
2018-05-15T15:49:25.769Z,72.00
2018-05-15T15:51:54.261Z,72.60
2018-05-15T15:54:26.529Z,72.80
2018-05-15T15:56:58.297Z,70.60
2018-05-15T15:59:27.489Z,67.00
2018-05-15T16:01:56.078Z,64.60
2018-05-15T16:04:24.588Z,64.40
2018-05-15T16:06:54.193Z,64.70
2018-05-15T16:09:24.141Z,65.00
2018-05-15T16:11:53.116Z,64.50
2018-05-15T16:14:25.906Z,65.10
2018-05-15T16:16:55.865Z,62.60
2018-05-15T16:19:24.829Z,59.60
2018-05-15T16:21:56.029Z,58.90
2018-05-15T16:24:25.150Z,59.90
2018-05-15T16:26:53.612Z,59.50
2018-05-15T16:29:22.113Z,58.10
2018-05-15T16:31:51.074Z,56.00
2018-05-15T16:34:19.677Z,53.70
2018-05-15T16:36:48.267Z,54.60
2018-05-15T16:39:17.449Z,53.40
2018-05-15T16:41:46.670Z,53.40
2018-05-15T16:44:15.021Z,54.20
2018-05-15T17:02:29.510Z,52.20
2018-05-15T17:04:58.777Z,46.80
2018-05-15T17:07:27.129Z,47.20
2018-05-15T17:09:55.570Z,48.00
2018-05-15T17:12:25.368Z,48.50
2018-05-15T17:14:54.051Z,46.40
2018-05-15T17:17:22.636Z,48.50
2018-05-15T17:19:51.780Z,46.70
2018-05-15T17:22:20.844Z,46.50
2018-05-15T17:24:50.593Z,46.00
2018-05-15T17:27:19.401Z,47.20
2018-05-15T17:29:47.964Z,46.20
2018-05-15T17:38:45.403Z,41.10
2018-05-15T17:41:14.524Z,44.30
2018-05-15T17:50:04.954Z,46.30
2018-05-15T17:52:35.154Z,43.60
2018-05-15T17:55:05.897Z,44.60
2018-05-15T17:57:36.549Z,44.80
2018-05-15T18:00:05.997Z,44.50
2018-05-15T18:02:36.993Z,45.70
2018-05-15T18:05:06.989Z,45.70
2018-05-15T18:07:37.436Z,44.50
2018-05-15T18:10:11.074Z,45.60
2018-05-15T18:12:43.294Z,45.00
2018-05-15T18:15:27.478Z,44.10
2018-05-15T18:18:18.055Z,43.60
2018-05-15T18:20:47.796Z,41.50
2018-05-15T18:23:17.751Z,42.90
2018-05-15T18:25:50.613Z,42.10
2018-05-15T18:28:22.985Z,41.10
2018-05-15T18:30:56.550Z,42.50
2018-05-15T18:33:26.474Z,42.70
2018-05-15T18:35:58.374Z,43.80
2018-05-15T18:38:29.446Z,44.60
2018-05-15T18:41:00.856Z,42.80
2018-05-15T18:44:01.649Z,44.10
2018-05-15T18:47:00.580Z,41.20
2018-05-15T18:49:59.375Z,41.10
2018-05-15T18:52:29.596Z,40.10
2018-05-15T18:54:58.673Z,41.20
2018-05-15T18:57:27.889Z,40.50
2018-05-15T18:59:57.008Z,40.10
2018-05-15T19:02:26.082Z,39.30
2018-05-15T19:04:56.112Z,40.70
2018-05-15T19:07:25.424Z,40.80
2018-05-15T19:09:56.180Z,40.70
2018-05-15T19:12:25.716Z,42.40
2018-05-15T19:14:54.875Z,41.30
2018-05-15T19:17:24.916Z,41.10
2018-05-15T19:19:54.041Z,41.90
2018-05-15T19:22:23.915Z,41.10
2018-05-15T19:24:56.034Z,42.80
2018-05-15T19:27:25.853Z,40.20
2018-05-15T19:29:56.903Z,40.80
2018-05-15T19:32:31.444Z,40.90
2018-05-15T19:35:02.315Z,46.00
2018-05-15T19:37:34.235Z,46.00
2018-05-15T19:40:08.693Z,43.20
2018-05-15T19:42:39.827Z,41.00
2018-05-15T19:45:10.658Z,39.90
2018-05-15T19:47:43.999Z,41.10
2018-05-15T19:50:16.888Z,39.10
2018-05-15T19:52:51.572Z,40.20
2018-05-15T19:55:22.165Z,39.20
2018-05-15T19:57:51.654Z,38.40
2018-05-15T20:00:22.460Z,39.10
2018-05-15T20:02:53.982Z,39.10
2018-05-15T20:05:23.188Z,38.50
2018-05-15T20:07:58.385Z,37.90
2018-05-15T20:11:03.105Z,39.10
2018-05-15T20:13:40.185Z,39.40
2018-05-15T20:16:13.960Z,39.10
2018-05-15T20:19:52.095Z,37.60
2018-05-15T20:22:36.740Z,37.00
2018-05-15T20:28:26.856Z,38.00
2018-05-15T20:30:57.278Z,40.20
2018-05-15T20:33:29.453Z,42.50
2018-05-15T20:36:00.814Z,42.50
2018-05-15T20:38:31.271Z,43.20
2018-05-15T20:41:00.568Z,45.50
2018-05-15T20:43:31.473Z,45.70
2018-05-15T20:46:00.890Z,47.50
2018-05-15T20:48:30.584Z,49.80
2018-05-15T20:51:00.965Z,50.80
2018-05-15T20:53:33.032Z,48.80
2018-05-15T20:56:03.237Z,47.10
2018-05-15T21:01:08.662Z,46.60
2018-05-15T21:03:38.906Z,46.60
2018-05-15T21:06:08.497Z,47.20
2018-05-15T21:08:41.444Z,46.20
2018-05-15T21:11:11.383Z,45.40
2018-05-15T21:13:43.211Z,47.20
2018-05-15T21:16:13.224Z,47.80
2018-05-15T21:18:45.183Z,48.90
2018-05-15T21:21:15.757Z,50.00
2018-05-15T21:23:45.283Z,50.00
2018-05-15T21:26:18.699Z,50.60
2018-05-15T21:28:48.215Z,51.40
2018-05-15T21:34:09.840Z,55.30
2018-05-15T21:36:39.952Z,54.10
2018-05-15T21:39:15.689Z,54.40
2018-05-15T21:41:45.973Z,55.90
2018-05-15T21:44:20.173Z,58.40
2018-05-15T21:46:50.130Z,61.50
2018-05-15T21:49:19.551Z,62.80
2018-05-15T21:51:51.410Z,65.40
2018-05-15T21:54:35.116Z,66.00
2018-05-15T21:57:06.469Z,67.10
2018-05-15T21:59:39.142Z,69.00
2018-05-15T22:05:23.849Z,69.80
2018-05-15T22:08:15.717Z,65.50
2018-05-15T22:11:24.588Z,66.80
2018-05-15T22:14:37.447Z,66.80
2018-05-15T22:17:50.441Z,69.20
2018-05-15T22:21:06.166Z,69.20
2018-05-15T22:27:23.045Z,73.00
2018-05-15T22:30:21.759Z,75.20
2018-05-15T22:32:53.243Z,74.10
2018-05-15T22:35:28.176Z,75.60
2018-05-15T22:38:00.358Z,77.90
2018-05-15T22:40:29.750Z,78.60
2018-05-15T22:42:59.080Z,78.90
2018-05-15T22:45:28.197Z,77.00
2018-05-15T22:48:00.441Z,75.70
2018-05-15T22:50:34.461Z,77.50
2018-05-15T22:53:03.796Z,78.40
2018-05-15T22:55:33.167Z,79.20
2018-05-15T22:58:04.568Z,79.00
2018-05-15T23:00:34.702Z,80.90
2018-05-15T23:03:04.181Z,82.30
2018-05-15T23:05:33.326Z,84.00
2018-05-15T23:08:07.215Z,85.50
2018-05-15T23:10:36.385Z,87.00
2018-05-15T23:13:05.791Z,90.30
2018-05-15T23:15:34.935Z,93.20
2018-05-15T23:18:05.447Z,95.50
2018-05-15T23:20:35.783Z,99.00
2018-05-15T23:23:09.393Z,99.90
2018-05-15T23:25:41.967Z,99.90
2018-05-15T23:28:11.920Z,99.90
2018-05-15T23:30:42.551Z,99.90
2018-05-15T23:33:12.114Z,99.90
2018-05-15T23:35:41.722Z,99.90
2018-05-15T23:38:10.861Z,99.90
2018-05-15T23:40:40.855Z,99.90
2018-05-15T23:43:10.265Z,99.90
2018-05-15T23:45:40.267Z,99.90
2018-05-15T23:48:13.061Z,99.90
2018-05-15T23:50:48.346Z,99.90
2018-05-15T23:53:17.730Z,99.90
2018-05-15T23:55:47.501Z,99.90
2018-05-15T23:58:18.155Z,99.90
